Nissos Kythnos — SVBI9 — position and weather

sailwx.info

Track history (hours):
 
Tides and Currents Weather Stations Pressure Air Temp Water Temp Dewpoint Dewpoint Depression Visibility Wind Speed Wind Dir Waves Ship Positions

Nissos Kythnos

Last reported at 2017-Oct-31 23:35 UTC. Time now 2017-Nov-23 03:51 UTC.
Position N 69°02' E 033°02'.
Warning: this ship's position is 22 days out of date.

Length 249 m; draft 8.2 m.

Type: Tanker. MMSI: 241132000.

Date/timePositionNaut miles runAvg speedWind from/ knotsBaromVisibWave heightAir tempDewpointWater temp
2017-Oct-31 23:35N 69°02' E 033°02'0 0.0
2017-Oct-31 23:26N 69°02' E 033°02'0 0.0
2017-Oct-31 22:56N 69°02' E 033°02'0 0.0
2017-Oct-31 21:29N 69°02' E 033°02'0 0.0
2017-Oct-31 20:44N 69°02' E 033°02'0 0.0
2017-Oct-31 20:23N 69°02' E 033°02'0 0.0
2017-Oct-31 19:56N 69°02' E 033°02'0 0.0
2017-Oct-31 19:08N 69°02' E 033°02'0 0.0
2017-Oct-31 18:56N 69°02' E 033°02'0 0.0
2017-Oct-31 18:29N 69°02' E 033°02'0 0.0
2017-Oct-31 17:59N 69°02' E 033°02'0 0.0
2017-Oct-31 17:26N 69°02' E 033°02'0 0.0
2017-Oct-31 16:56N 69°02' E 033°02'0 0.0
2017-Oct-31 16:26N 69°02' E 033°02'0 0.0
2017-Oct-31 15:56N 69°02' E 033°02'0 0.0
2017-Oct-31 15:14N 69°02' E 033°02'0 0.0
2017-Oct-31 14:44N 69°02' E 033°02'0 0.0
2017-Oct-31 14:23N 69°02' E 033°02'0 0.0
2017-Oct-31 13:53N 69°02' E 033°02'0 0.0
2017-Oct-31 13:05N 69°02' E 033°02'0 0.0
2017-Oct-31 12:59N 69°02' E 033°02'0 0.0
2017-Oct-31 12:20N 69°02' E 033°02'0 0.0
2017-Oct-31 11:53N 69°02' E 033°02'0 0.0
2017-Oct-31 10:44N 69°02' E 033°02'0 0.0
2017-Oct-31 10:29N 69°02' E 033°02'0 0.0
2017-Oct-31 09:56N 69°02' E 033°02'0 0.0
2017-Oct-31 09:23N 69°02' E 033°02'0 0.0
2017-Oct-31 08:59N 69°02' E 033°02'0 0.0
2017-Oct-31 08:14N 69°02' E 033°02'0 0.0
2017-Oct-31 07:59N 69°02' E 033°02'0 0.0
2017-Oct-31 07:23N 69°02' E 033°02'0 0.0
2017-Oct-31 06:56N 69°02' E 033°02'0 0.0
2017-Oct-31 06:26N 69°02' E 033°02'0 0.0
2017-Oct-31 04:56N 69°02' E 033°02'0 0.0
2017-Oct-31 04:20N 69°02' E 033°02'0 0.0
2017-Oct-31 03:50N 69°02' E 033°02'0 0.0
2017-Oct-31 03:23N 69°02' E 033°02'0 0.0
2017-Oct-31 02:56N 69°02' E 033°02'0 0.0
2017-Oct-31 02:20N 69°02' E 033°02'0 0.0
2017-Oct-31 01:56N 69°02' E 033°02'0 0.0
2017-Oct-31 01:20N 69°02' E 033°02'0 0.0
2017-Oct-30 23:38N 69°02' E 033°02'0 0.0
2017-Oct-30 22:35N 69°02' E 033°02'0 0.0
2017-Oct-30 22:08N 69°02' E 033°02'0 0.0
2017-Oct-30 21:50N 69°02' E 033°02'0 0.0
2017-Oct-30 20:02N 69°02' E 033°02'0 0.0
2017-Oct-30 19:56N 69°02' E 033°02'0 0.0
2017-Oct-30 19:26N 69°02' E 033°02'0 0.0
2017-Oct-30 18:59N 69°02' E 033°02'0 0.0
2017-Oct-30 18:20N 69°02' E 033°02'0 0.0
2017-Oct-30 17:47N 69°02' E 033°02'0 0.0
2017-Oct-30 17:20N 69°02' E 033°02'0 0.0
2017-Oct-30 15:41N 69°02' E 033°02'0 0.0
2017-Oct-30 15:26N 69°02' E 033°02'0 0.0
2017-Oct-30 14:38N 69°02' E 033°02'0 0.0
2017-Oct-30 13:59N 69°02' E 033°02'0 0.0
2017-Oct-30 12:38N 69°02' E 033°02'0 0.0
2017-Oct-30 12:23N 69°02' E 033°02'0 0.0
2017-Oct-30 11:59N 69°02' E 033°02'0 0.0
2017-Oct-30 11:30N 69°02' E 033°02'0 0.0
2017-Oct-30 11:00N 69°02' E 033°02'0 0.0
2017-Oct-30 10:30N 69°02' E 033°02'0 0.0
2017-Oct-30 10:00N 69°02' E 033°02'0 0.0
2017-Oct-30 09:30N 69°02' E 033°02'0 0.1
2017-Oct-30 09:00N 69°02' E 033°03'1 1.2
2017-Oct-30 08:30N 69°03' E 033°03'78 3.5
2017-Oct-29 10:28N 70°17' E 031°54'511.2
2017-Oct-29 10:00N 70°18' E 031°38'510.8
2017-Oct-29 09:30N 70°19' E 031°22'4 7.2
2017-Oct-29 09:00N 70°19' E 031°12'2 3.7
2017-Oct-29 08:30N 70°20' E 031°08'2 4.0
2017-Oct-29 08:00N 70°21' E 031°14'1 2.3
2017-Oct-29 07:30N 70°21' E 031°11'4 8.4
2017-Oct-29 07:00N 70°25' E 031°17'5 9.2
2017-Oct-29 06:30N 70°28' E 031°27'  
2017-Oct-25 19:21N 61°46' W 004°45'412.7
2017-Oct-25 19:00N 61°42' W 004°51'612.7
2017-Oct-25 18:30N 61°38' W 005°00'  
Track history (hours):
 
Tides and Currents Weather Stations Pressure Air Temp Water Temp Dewpoint Dewpoint Depression Visibility Wind Speed Wind Dir Waves Ship Positions

Nissos Kythnos

Last reported at 2017-Oct-31 23:35 UTC. Time now 2017-Nov-23 03:51 UTC.
Position N 69°02' E 033°02'.
Warning: this ship's position is 22 days out of date.

Length 249 m; draft 8.2 m.

Type: Tanker. MMSI: 241132000.

Date/timePositionNaut miles runAvg speedWind from/ knotsBaromVisibWave heightAir tempDewpointWater temp
2017-Oct-31 23:35N 69°02' E 033°02'0 0.0
2017-Oct-31 23:26N 69°02' E 033°02'0 0.0
2017-Oct-31 22:56N 69°02' E 033°02'0 0.0
2017-Oct-31 21:29N 69°02' E 033°02'0 0.0
2017-Oct-31 20:44N 69°02' E 033°02'0 0.0
2017-Oct-31 20:23N 69°02' E 033°02'0 0.0
2017-Oct-31 19:56N 69°02' E 033°02'0 0.0
2017-Oct-31 19:08N 69°02' E 033°02'0 0.0
2017-Oct-31 18:56N 69°02' E 033°02'0 0.0
2017-Oct-31 18:29N 69°02' E 033°02'0 0.0
2017-Oct-31 17:59N 69°02' E 033°02'0 0.0
2017-Oct-31 17:26N 69°02' E 033°02'0 0.0
2017-Oct-31 16:56N 69°02' E 033°02'0 0.0
2017-Oct-31 16:26N 69°02' E 033°02'0 0.0
2017-Oct-31 15:56N 69°02' E 033°02'0 0.0
2017-Oct-31 15:14N 69°02' E 033°02'0 0.0
2017-Oct-31 14:44N 69°02' E 033°02'0 0.0
2017-Oct-31 14:23N 69°02' E 033°02'0 0.0
2017-Oct-31 13:53N 69°02' E 033°02'0 0.0
2017-Oct-31 13:05N 69°02' E 033°02'0 0.0
2017-Oct-31 12:59N 69°02' E 033°02'0 0.0
2017-Oct-31 12:20N 69°02' E 033°02'0 0.0
2017-Oct-31 11:53N 69°02' E 033°02'0 0.0
2017-Oct-31 10:44N 69°02' E 033°02'0 0.0
2017-Oct-31 10:29N 69°02' E 033°02'0 0.0
2017-Oct-31 09:56N 69°02' E 033°02'0 0.0
2017-Oct-31 09:23N 69°02' E 033°02'0 0.0
2017-Oct-31 08:59N 69°02' E 033°02'0 0.0
2017-Oct-31 08:14N 69°02' E 033°02'0 0.0
2017-Oct-31 07:59N 69°02' E 033°02'0 0.0
2017-Oct-31 07:23N 69°02' E 033°02'0 0.0
2017-Oct-31 06:56N 69°02' E 033°02'0 0.0
2017-Oct-31 06:26N 69°02' E 033°02'0 0.0
2017-Oct-31 04:56N 69°02' E 033°02'0 0.0
2017-Oct-31 04:20N 69°02' E 033°02'0 0.0
2017-Oct-31 03:50N 69°02' E 033°02'0 0.0
2017-Oct-31 03:23N 69°02' E 033°02'0 0.0
2017-Oct-31 02:56N 69°02' E 033°02'0 0.0
2017-Oct-31 02:20N 69°02' E 033°02'0 0.0
2017-Oct-31 01:56N 69°02' E 033°02'0 0.0
2017-Oct-31 01:20N 69°02' E 033°02'0 0.0
2017-Oct-30 23:38N 69°02' E 033°02'0 0.0
2017-Oct-30 22:35N 69°02' E 033°02'0 0.0
2017-Oct-30 22:08N 69°02' E 033°02'0 0.0
2017-Oct-30 21:50N 69°02' E 033°02'0 0.0
2017-Oct-30 20:02N 69°02' E 033°02'0 0.0
2017-Oct-30 19:56N 69°02' E 033°02'0 0.0
2017-Oct-30 19:26N 69°02' E 033°02'0 0.0
2017-Oct-30 18:59N 69°02' E 033°02'0 0.0
2017-Oct-30 18:20N 69°02' E 033°02'0 0.0
2017-Oct-30 17:47N 69°02' E 033°02'0 0.0
2017-Oct-30 17:20N 69°02' E 033°02'0 0.0
2017-Oct-30 15:41N 69°02' E 033°02'0 0.0
2017-Oct-30 15:26N 69°02' E 033°02'0 0.0
2017-Oct-30 14:38N 69°02' E 033°02'0 0.0
2017-Oct-30 13:59N 69°02' E 033°02'0 0.0
2017-Oct-30 12:38N 69°02' E 033°02'0 0.0
2017-Oct-30 12:23N 69°02' E 033°02'0 0.0
2017-Oct-30 11:59N 69°02' E 033°02'0 0.0
2017-Oct-30 11:30N 69°02' E 033°02'0 0.0
2017-Oct-30 11:00N 69°02' E 033°02'0 0.0
2017-Oct-30 10:30N 69°02' E 033°02'0 0.0
2017-Oct-30 10:00N 69°02' E 033°02'0 0.0
2017-Oct-30 09:30N 69°02' E 033°02'0 0.1
2017-Oct-30 09:00N 69°02' E 033°03'1 1.2
2017-Oct-30 08:30N 69°03' E 033°03'78 3.5
2017-Oct-29 10:28N 70°17' E 031°54'511.2
2017-Oct-29 10:00N 70°18' E 031°38'510.8
2017-Oct-29 09:30N 70°19' E 031°22'4 7.2
2017-Oct-29 09:00N 70°19' E 031°12'2 3.7
2017-Oct-29 08:30N 70°20' E 031°08'2 4.0
2017-Oct-29 08:00N 70°21' E 031°14'1 2.3
2017-Oct-29 07:30N 70°21' E 031°11'4 8.4
2017-Oct-29 07:00N 70°25' E 031°17'5 9.2
2017-Oct-29 06:30N 70°28' E 031°27'  
2017-Oct-25 19:21N 61°46' W 004°45'412.7
2017-Oct-25 19:00N 61°42' W 004°51'612.7
2017-Oct-25 18:30N 61°38' W 005°00'  

Dump ship's entire track history